ADDS METAR Data INFO
IDs: Format: Raw Decoded Include TAF

Data at: 0220 UTC 18 Jan 2018

KPRO 180155Z AUTO 21009KT 10SM CLR M07/M13 A3031 RMK AO2 T10711130
KPRO 180135Z AUTO 22011KT 10SM CLR M07/M13 A3032 RMK AO2 T10751130
KPRO 180115Z AUTO 22010KT 10SM CLR M07/M13 A3032 RMK AO2 T10721130
KPRO 180055Z AUTO 21011KT 10SM CLR M08/M13 A3032 RMK AO2 T10771130
KPRO 180035Z AUTO 20009KT 10SM CLR M07/M13 A3032 RMK AO2 T10751128
KPRO 180015Z AUTO 21011KT 10SM CLR M07/M13 A3032 RMK AO2 T10681127
KPRO 172355Z AUTO 21013G18KT 10SM CLR M06/M13 A3033 RMK AO2 T10601126 11033 21062
KPRO 172335Z AUTO 21013KT 10SM CLR M06/M13 A3033 RMK AO2 T10571126
KPRO 172315Z AUTO 21015KT 10SM CLR M05/M12 A3033 RMK AO2 T10551123
KPRO 172255Z AUTO 21014G18KT 10SM CLR M05/M12 A3034 RMK AO2 T10491121
KPRO 172235Z AUTO 21012KT 10SM CLR M04/M12 A3035 RMK AO2 T10451118
KPRO 172215Z AUTO 21012KT 10SM CLR M04/M12 A3035 RMK AO2 T10401118
KPRO 172155Z AUTO 21010KT 10SM CLR M04/M11 A3036 RMK AO2 T10361113
KPRO 172135Z AUTO 22010KT 10SM CLR M03/M11 A3036 RMK AO2 T10351113
KPRO 172115Z AUTO 21011KT 10SM CLR M03/M12 A3036 RMK AO2 T10341117
KPRO 172055Z AUTO 22014G18KT 10SM CLR M03/M12 A3036 RMK AO2 T10331118
KPRO 172035Z AUTO 22015G21KT 10SM CLR M03/M12 A3036 RMK AO2 T10351118
KPRO 172015Z AUTO 21014G21KT 10SM CLR M04/M12 A3037 RMK AO2 T10381120
KPRO 171955Z AUTO 22015KT 10SM CLR M04/M12 A3038 RMK AO2 T10421121
KPRO 171935Z AUTO 21014KT 10SM CLR M04/M12 A3039 RMK AO2 T10451117
KPRO 171915Z AUTO 21017KT 10SM CLR M05/M12 A3040 RMK AO2 T10501120
KPRO 171855Z AUTO 21014KT 10SM CLR M05/M12 A3042 RMK AO2 T10531119
KPRO 171835Z AUTO 22014KT 10SM CLR M05/M12 A3043 RMK AO2 T10551123
KPRO 171815Z AUTO 22015G19KT 10SM CLR M06/M12 A3044 RMK AO2 T10561122
KPRO 171755Z AUTO 22017KT 10SM CLR M06/M13 A3046 RMK AO2 T10621130 11062 21207
KPRO 171735Z AUTO 22018G21KT 10SM CLR M07/M13 A3048 RMK AO2 T10661130
KPRO 171715Z AUTO 22013KT 10SM CLR M07/M13 A3048 RMK AO2 T10711135
KPRO 171655Z AUTO 22013KT 10SM CLR M08/M14 A3050 RMK AO2 T10791138
KPRO 171635Z AUTO 22012KT 10SM CLR M08/M14 A3051 RMK AO2 T10841141
KPRO 171615Z AUTO 22009KT 10SM CLR M10/M14 A3051 RMK AO2 T10981141
KPRO 171555Z AUTO 21009KT 10SM CLR M11/M15 A3051 RMK AO2 T11091146
KPRO 171535Z AUTO 21008KT 10SM CLR M12/M15 A3051 RMK AO2 T11211151
KPRO 171515Z AUTO 21007KT 10SM CLR M13/M16 A3051 RMK AO2 T11341159
KPRO 171455Z AUTO 20006KT 10SM CLR M15/M17 A3052 RMK AO2 T11471167
KPRO 171435Z AUTO 19007KT 10SM CLR M16/M18 A3051 RMK AO2 T11641183
KPRO 171415Z AUTO 19008KT 10SM CLR M17/M19 A3052 RMK AO2 T11751193
KPRO 171355Z AUTO 19006KT 10SM CLR M19/M22 A3052 RMK AO2 T11951216
KPRO 171335Z AUTO 21006KT 10SM CLR M19/M21 A3053 RMK AO2 T11931214
KPRO 171315Z AUTO 20006KT 10SM CLR M19/M21 A3053 RMK AO2 T11891209
KPRO 171255Z AUTO 20006KT 10SM CLR M19/M21 A3053 RMK AO2 T11901210
KPRO 171235Z AUTO 20006KT 10SM CLR M20/M22 A3053 RMK AO2 T12001221
KPRO 171215Z AUTO 20008KT 10SM CLR M20/M22 A3053 RMK AO2 T12041224
KPRO 171155Z AUTO 19005KT 10SM CLR M20/M23 A3055 RMK AO2 T12031227 11190 21216
KPRO 171135Z AUTO 00000KT 10SM CLR M19/M21 A3056 RMK AO2 T11911211
KPRO 171115Z AUTO 00000KT 10SM CLR M19/M21 A3056 RMK AO2 T11941214
KPRO 171055Z AUTO 00000KT 10SM CLR M20/M22 A3055 RMK AO2 T12001222
KPRO 171035Z AUTO 19006KT 10SM CLR M20/M22 A3053 RMK AO2 T12041225
KPRO 171015Z AUTO 18007KT 10SM CLR M21/M23 A3054 RMK AO2 T12121235
KPRO 170955Z AUTO 19006KT 10SM CLR M21/M23 A3057 RMK AO2 T12101232
KPRO 170935Z AUTO 20006KT 10SM CLR M21/M24 A3058 RMK AO2 T12151238
KPRO 170915Z AUTO 18006KT 10SM CLR M21/M23 A3058 RMK AO2 T12131235
KPRO 170855Z AUTO 17006KT 10SM CLR M21/M23 A3058 RMK AO2 T12111235
KPRO 170835Z AUTO 18006KT 10SM CLR M20/M22 A3059 RMK AO2 T12051225
KPRO 170815Z AUTO 19006KT 10SM CLR M21/M23 A3058 RMK AO2 T12111233
KPRO 170755Z AUTO 19006KT 10SM CLR M21/M23 A3059 RMK AO2 T12111234
KPRO 170735Z AUTO 21006KT 10SM CLR M20/M22 A3059 RMK AO2 T12001223
KPRO 170715Z AUTO 23004KT 10SM CLR M20/M23 A3060 RMK AO2 T12051228
KPRO 170655Z AUTO 23006KT 10SM CLR M20/M22 A3060 RMK AO2 T12011222
KPRO 170635Z AUTO 25007KT 10SM CLR M20/M22 A3061 RMK AO2 T12021224
KPRO 170615Z AUTO 25006KT 10SM CLR M21/M23 A3062 RMK AO2 T12111234
KPRO 170555Z AUTO 24007KT 10SM CLR M21/M23 A3062 RMK AO2 T12091231 11171 21209
KPRO 170535Z AUTO 25006KT 10SM CLR M20/M23 A3063 RMK AO2 T12051227
KPRO 170515Z AUTO 24006KT 10SM CLR M20/M22 A3063 RMK AO2 T12041225
KPRO 170455Z AUTO 24007KT 10SM CLR M20/M22 A3063 RMK AO2 T12021222
KPRO 170435Z AUTO 25006KT 10SM CLR M21/M23 A3064 RMK AO2 T12061229
KPRO 170415Z AUTO 24007KT 10SM CLR M20/M22 A3064 RMK AO2 T12051225
KPRO 170355Z AUTO 23008KT 10SM CLR M20/M22 A3064 RMK AO2 T12051225 411461213
KPRO 170335Z AUTO 24006KT 10SM CLR M21/M23 A3065 RMK AO2 T12061228
KPRO 170315Z AUTO 26006KT 10SM CLR M20/M22 A3065 RMK AO2 T12031225
KPRO 170255Z AUTO 25006KT 10SM CLR M20/M22 A3066 RMK AO2 T12031224
KPRO 170235Z AUTO 25006KT 10SM CLR M20/M22 A3066 RMK AO2 T11981221
KPRO 170215Z AUTO 26007KT 10SM CLR M20/M22 A3066 RMK AO2 T12001221
KPRO 170155Z AUTO 27007KT 10SM CLR M19/M21 A3066 RMK AO2 T11901212
KPRO 170135Z AUTO 28009KT 10SM CLR M19/M21 A3067 RMK AO2 T11861207
KPRO 170115Z AUTO 27006KT 10SM CLR M19/M21 A3068 RMK AO2 T11911212
KPRO 170055Z AUTO 28006KT 10SM CLR M19/M21 A3067 RMK AO2 T11861207
KPRO 170035Z AUTO 28006KT 10SM CLR M18/M20 A3068 RMK AO2 T11811205
KPRO 170015Z AUTO 28006KT 10SM CLR M18/M20 A3067 RMK AO2 T11771201
KPRO 162355Z AUTO 29006KT 10SM CLR M17/M19 A3068 RMK AO2 T11701195 11146 21170
KPRO 162335Z AUTO 29006KT 10SM CLR M16/M19 A3067 RMK AO2 T11641190
KPRO 162315Z AUTO 30006KT 10SM CLR M15/M19 A3067 RMK AO2 T11551186
KPRO 162255Z AUTO 30006KT 10SM CLR M15/M18 A3067 RMK AO2 T11501185
KPRO 162235Z AUTO 30008KT 10SM CLR M15/M18 A3067 RMK AO2 T11471180
KPRO 162215Z AUTO 30007KT 10SM SCT012 M15/M18 A3068 RMK AO2 T11461180
KPRO 162155Z AUTO 30008KT 10SM SCT014 M15/M18 A3068 RMK AO2 T11491181
KPRO 162135Z AUTO 31007KT 10SM OVC014 M15/M18 A3068 RMK AO2 T11501182
KPRO 162115Z AUTO 31008KT 10SM BKN014 M15/M18 A3068 RMK AO2 T11501181
KPRO 162055Z AUTO 33009KT 10SM OVC014 M15/M18 A3068 RMK AO2 T11481182
KPRO 162035Z AUTO 33010KT 7SM OVC014 M15/M18 A3069 RMK AO2 T11501183
KPRO 162015Z AUTO 32010KT 7SM OVC014 M15/M19 A3069 RMK AO2 T11521186
KPRO 161955Z AUTO 32009KT 10SM OVC014 M15/M19 A3069 RMK AO2 T11521187
KPRO 161935Z AUTO 31006KT 7SM OVC014 M16/M19 A3069 RMK AO2 T11571190
KPRO 161915Z AUTO 30008KT 7SM OVC012 M16/M19 A3069 RMK AO2 T11601190
KPRO 161855Z AUTO 31010KT 7SM OVC012 M16/M19 A3070 RMK AO2 T11631194
KPRO 161835Z AUTO 31010KT 10SM OVC012 M16/M20 A3070 RMK AO2 T11651198
KPRO 161815Z AUTO 31010KT 7SM OVC012 M17/M20 A3070 RMK AO2 T11681201
KPRO 161755Z AUTO 31009KT 10SM OVC014 M17/M20 A3071 RMK AO2 T11691205 11168 21200
KPRO 161735Z AUTO 30009KT 10SM OVC016 M17/M20 A3072 RMK AO2 T11681205
KPRO 161715Z AUTO 32008KT 10SM OVC014 M17/M21 A3073 RMK AO2 T11721209
KPRO 161655Z AUTO 32009KT 10SM BKN014 OVC048 M18/M21 A3073 RMK AO2 T11781215
KPRO 161635Z AUTO 32009KT 7SM -SN SCT016 OVC048 M18/M21 A3073 RMK AO2 T11801214
KPRO 161615Z AUTO 33011KT 2 1/2SM -SN BKN016 OVC025 M18/M21 A3073 RMK AO2 T11811212
KPRO 161555Z AUTO 33011KT 2 1/2SM -SN BKN018 OVC024 M18/M21 A3073 RMK AO2 T11831215
KPRO 161535Z AUTO 33012KT 3SM -SN BKN020 OVC028 M19/M22 A3072 RMK AO2 T11881220
KPRO 161515Z AUTO 31010KT 2 1/2SM -SN SCT019 BKN024 OVC034 M19/M22 A3071 RMK AO2 VIS 2V3 T11901221
KPRO 161455Z AUTO 31010G15KT 5SM -SN SCT022 SCT030 OVC040 M19/M22 A3070 RMK AO2 T11911224
KPRO 161435Z AUTO 31011G16KT 10SM -SN BKN038 OVC046 M19/M22 A3069 RMK AO2 T11911223